Time;durP1;ratioP1;P1;durP2;ratioP2;P2;SDS_P1;SDS_P2;PMS_P1;PMS_P2;Temp;Humidity;BMP_temperature;BMP_pressure;BME280_temperature;BME280_humidity;BME280_pressure;Samples;Min_cycle;Max_cycle;Signal;HPM_P1;HPM_P2
2022/07/21 00:02:18;;;;;;;10.68;2.65;;;;;;;-144.47;33.60;52856.09;5004947;28;20045;-65
2022/07/21 00:04:44;;;;;;;5.30;2.65;;;;;;;-144.47;33.75;52828.28;4990642;28;20026;-64
2022/07/21 00:07:09;;;;;;;13.18;2.60;;;;;;;-144.47;33.83;52868.00;4990982;28;20460;-63
2022/07/21 00:09:35;;;;;;;13.15;2.85;;;;;;;-144.47;34.10;52887.88;4991772;28;20506;-65
2022/07/21 00:12:02;;;;;;;8.07;2.63;;;;;;;-144.47;34.14;52871.97;4988525;28;20030;-66
2022/07/21 00:14:27;;;;;;;5.78;2.75;;;;;;;-144.47;34.22;52868.00;4981564;28;20048;-66
2022/07/21 00:16:53;;;;;;;8.52;3.22;;;;;;;-144.47;34.30;52903.75;4989916;28;20492;-64
2022/07/21 00:19:18;;;;;;;11.13;2.85;;;;;;;-144.47;34.37;52850.13;4990859;28;20491;-67
2022/07/21 00:21:43;;;;;;;12.45;2.80;;;;;;;-144.47;34.32;52875.94;4991927;28;20057;-64
2022/07/21 00:24:09;;;;;;;15.85;3.83;;;;;;;-144.47;34.44;52848.16;4991045;28;20494;-63
2022/07/21 00:26:34;;;;;;;24.08;4.78;;;;;;;-144.47;34.87;52889.84;4991100;28;20030;-66
2022/07/21 00:29:00;;;;;;;14.38;4.80;;;;;;;-144.47;35.32;52899.78;4991308;28;20050;-64
2022/07/21 00:31:25;;;;;;;24.85;5.68;;;;;;;-144.47;35.85;52891.84;4990566;28;20108;-64
2022/07/21 00:33:51;;;;;;;24.85;6.68;;;;;;;-144.47;36.55;52887.88;4990137;28;20088;-66
2022/07/21 00:36:17;;;;;;;22.10;6.05;;;;;;;-144.47;37.00;52850.13;5003231;28;20023;-63
2022/07/21 00:38:43;;;;;;;40.65;7.47;;;;;;;-144.47;37.47;52891.84;4988277;28;20053;-66
2022/07/21 00:41:08;;;;;;;32.55;7.82;;;;;;;-144.47;37.78;52860.06;4987077;28;20023;-63
2022/07/21 00:43:33;;;;;;;28.23;7.40;;;;;;;-144.47;37.98;52907.72;4985548;28;20026;-65
2022/07/21 00:45:59;;;;;;;42.38;6.72;;;;;;;-144.47;38.10;52889.84;4988334;28;20383;-65
2022/07/21 00:48:24;;;;;;;28.20;6.68;;;;;;;-144.47;38.24;52903.75;4977226;28;20142;-65
2022/07/21 00:50:50;;;;;;;39.00;7.60;;;;;;;-144.47;38.42;52871.97;4985775;28;20022;-65
2022/07/21 00:53:15;;;;;;;28.15;6.93;;;;;;;-144.47;38.57;52887.88;4981027;28;20023;-65
2022/07/21 00:55:44;;;;;;;20.38;6.97;;;;;;;-144.47;38.81;52871.97;4978133;28;20069;-65
2022/07/21 00:58:10;;;;;;;23.60;6.82;;;;;;;-144.47;38.99;52868.00;4989272;28;20026;-65
2022/07/21 01:00:36;;;;;;;29.02;6.32;;;;;;;-144.47;39.29;52895.81;4990005;28;20351;-64
2022/07/21 01:03:01;;;;;;;16.77;6.85;;;;;;;-144.47;39.54;52879.94;4989193;28;20109;-64
2022/07/21 01:05:27;;;;;;;27.95;7.00;;;;;;;-144.47;39.58;52862.06;4988732;28;20045;-64
2022/07/21 01:07:54;;;;;;;22.23;6.30;;;;;;;-144.47;39.80;52893.81;4988664;28;20098;-64
2022/07/21 01:10:22;;;;;;;28.03;7.53;;;;;;;-144.47;40.13;52889.84;4989412;28;20026;-65
2022/07/21 01:12:48;;;;;;;27.42;7.45;;;;;;;-144.47;40.26;52883.91;4988308;28;20030;-63
2022/07/21 01:15:16;;;;;;;30.75;7.35;;;;;;;-144.47;40.51;52903.75;4986047;28;20034;-66
2022/07/21 01:17:43;;;;;;;25.13;6.03;;;;;;;-144.47;40.52;52879.94;4988421;28;20518;-63
2022/07/21 01:20:12;;;;;;;37.47;6.50;;;;;;;-144.47;40.60;52903.75;4989314;28;20041;-65
2022/07/21 01:22:40;;;;;;;17.83;6.32;;;;;;;-144.47;40.77;52891.84;4990212;28;20022;-65
2022/07/21 01:25:07;;;;;;;19.42;5.97;;;;;;;-144.47;40.96;52917.66;4988090;28;20476;-65
2022/07/21 01:27:33;;;;;;;31.92;6.68;;;;;;;-144.47;40.81;52927.59;4987641;28;20034;-64
2022/07/21 01:29:59;;;;;;;21.52;6.13;;;;;;;-144.47;41.06;52915.69;4989300;28;20070;-64
2022/07/21 01:32:25;;;;;;;23.33;5.72;;;;;;;-144.47;41.31;52889.84;4989352;28;20033;-64
2022/07/21 01:34:50;;;;;;;23.20;7.75;;;;;;;-144.47;41.35;52911.69;4983967;28;20416;-65
2022/07/21 01:37:21;;;;;;;14.80;6.05;;;;;;;-144.47;41.58;52931.56;4980505;28;20399;-65
2022/07/21 01:42:32;;;;;;;17.23;6.38;;;;;;;-144.47;41.91;52935.53;4988923;28;20069;-64
2022/07/21 01:44:57;;;;;;;29.88;8.43;;;;;;;-144.47;41.98;52915.69;4988045;28;20455;-64
2022/07/21 01:47:23;;;;;;;21.65;6.43;;;;;;;-144.47;42.09;52915.69;4986499;28;20075;-64
2022/07/21 01:49:49;;;;;;;17.95;6.45;;;;;;;-144.47;41.97;52927.59;4987923;28;20026;-65
2022/07/21 01:52:14;;;;;;;17.40;6.95;;;;;;;-144.47;42.07;52931.56;4988067;28;20896;-63
2022/07/21 01:54:40;;;;;;;28.25;6.82;;;;;;;-144.47;42.21;52903.75;4972451;28;20022;-63
2022/07/21 01:57:05;;;;;;;17.35;6.47;;;;;;;-144.47;41.82;52939.50;4982023;28;20066;-65
2022/07/21 01:59:31;;;;;;;23.20;6.07;;;;;;;-144.47;41.75;52941.50;4988110;28;20033;-64
2022/07/21 02:01:56;;;;;;;14.13;5.78;;;;;;;-144.47;41.75;52895.81;4986585;28;20029;-64
2022/07/21 02:04:21;;;;;;;15.50;5.88;;;;;;;-144.47;41.60;52911.69;4988989;28;20026;-63
2022/07/21 02:06:47;;;;;;;16.83;5.80;;;;;;;-144.47;41.31;52987.19;4988136;28;20429;-64
2022/07/21 02:09:12;;;;;;;11.45;6.03;;;;;;;-144.47;41.46;52891.84;4988795;28;20026;-65
2022/07/21 02:11:38;;;;;;;15.27;6.47;;;;;;;-144.47;41.28;52911.69;4989149;28;20118;-64
2022/07/21 02:14:04;;;;;;;17.75;6.60;;;;;;;-144.47;41.10;52925.59;4987577;28;20023;-66
2022/07/21 02:16:29;;;;;;;13.40;5.78;;;;;;;-144.47;41.20;52943.47;4987685;28;20522;-64
2022/07/21 02:18:55;;;;;;;16.65;6.43;;;;;;;-144.47;41.15;52957.38;4988741;28;20026;-63
2022/07/21 02:21:20;;;;;;;15.07;5.20;;;;;;;-144.47;41.07;52927.59;4988413;28;20038;-64
2022/07/21 02:23:46;;;;;;;13.40;5.90;;;;;;;-144.47;40.92;52935.53;4988967;28;20022;-66
2022/07/21 02:26:11;;;;;;;12.75;6.72;;;;;;;-144.47;40.68;52943.47;4986941;28;20254;-64
2022/07/21 02:28:37;;;;;;;9.65;5.53;;;;;;;-144.47;40.77;52935.53;4988779;28;20468;-64
2022/07/21 02:31:03;;;;;;;13.50;5.50;;;;;;;-144.47;40.36;52893.81;4987585;28;20026;-65
2022/07/21 02:33:28;;;;;;;14.23;6.18;;;;;;;-144.47;40.34;52937.53;4987347;28;20026;-65
2022/07/21 02:35:54;;;;;;;14.07;6.15;;;;;;;-144.47;40.36;52927.59;4986695;28;20026;-65
2022/07/21 02:38:19;;;;;;;14.63;5.53;;;;;;;-144.47;40.07;52947.47;4984172;28;20023;-64
2022/07/21 02:40:44;;;;;;;14.95;5.20;;;;;;;-144.47;40.21;52893.81;4986903;28;20022;-65
2022/07/21 02:43:10;;;;;;;11.02;5.45;;;;;;;-144.47;40.06;52927.59;4986874;28;20077;-64
2022/07/21 02:45:36;;;;;;;14.20;6.03;;;;;;;-144.47;40.01;52864.03;4986564;28;20022;-67
2022/07/21 02:48:07;;;;;;;9.35;4.97;;;;;;;-144.47;39.88;52935.53;4987781;28;20041;-65
2022/07/21 02:50:35;;;;;;;20.88;5.55;;;;;;;-144.47;40.04;52907.72;4988757;28;20030;-64
2022/07/21 02:53:28;;;;;;;11.98;4.95;;;;;;;-144.47;40.01;52895.81;4990600;28;20057;-63
2022/07/21 02:55:53;;;;;;;14.10;5.25;;;;;;;-144.47;40.01;52909.72;4980160;28;20030;-63
2022/07/21 02:58:24;;;;;;;8.93;4.95;;;;;;;-144.47;40.01;52935.53;4991753;28;20042;-64
2022/07/21 03:00:54;;;;;;;10.23;4.60;;;;;;;-144.47;39.88;52929.59;4991599;28;20045;-66
2022/07/21 03:03:21;;;;;;;17.10;4.38;;;;;;;-144.47;39.81;52979.22;5006822;28;20030;-63
2022/07/21 03:05:47;;;;;;;17.92;6.00;;;;;;;-144.47;39.74;52905.75;4991996;28;20101;-64
2022/07/21 03:08:13;;;;;;;11.30;4.95;;;;;;;-144.47;39.68;52907.72;4991095;28;20505;-63
2022/07/21 03:10:39;;;;;;;17.48;5.57;;;;;;;-144.47;39.75;52907.72;4990979;28;20478;-65
2022/07/21 03:13:05;;;;;;;10.95;5.22;;;;;;;-144.47;39.60;52927.59;4989398;28;20026;-64
2022/07/21 03:15:31;;;;;;;17.23;5.35;;;;;;;-144.47;39.66;52927.59;4988858;28;20129;-64
2022/07/21 03:17:58;;;;;;;12.50;5.00;;;;;;;-144.47;39.76;52911.69;4991269;28;20050;-65
2022/07/21 03:20:27;;;;;;;11.85;5.00;;;;;;;-144.47;39.84;52939.50;4990589;28;20058;-66
2022/07/21 03:22:53;;;;;;;10.15;5.05;;;;;;;-144.47;39.93;52941.50;4990939;28;20476;-65
2022/07/21 03:25:19;;;;;;;11.98;4.93;;;;;;;-144.47;40.60;52929.59;4990192;28;20050;-66
2022/07/21 03:27:45;;;;;;;12.63;5.50;;;;;;;-144.47;40.98;52949.44;4990998;28;20392;-66
2022/07/21 03:32:43;;;;;;;8.73;4.60;;;;;;;-144.47;41.85;52911.69;4970097;28;20039;-65
2022/07/21 03:35:10;;;;;;;13.90;4.55;;;;;;;-144.47;42.18;52903.75;4986440;28;20022;-64
2022/07/21 03:37:50;;;;;;;14.25;4.43;;;;;;;-144.47;42.45;52913.69;4972857;28;20023;-64
2022/07/21 03:40:19;;;;;;;10.48;4.05;;;;;;;-144.47;42.48;52937.53;4973345;28;20037;-65
2022/07/21 03:42:44;;;;;;;;;;;;;;;-144.47;42.66;52935.53;4975722;28;20018;-65
2022/07/21 03:45:10;;;;;;;11.13;3.80;;;;;;;-144.47;42.82;52935.53;4992666;28;19937;-64
2022/07/21 03:47:36;;;;;;;10.13;4.00;;;;;;;-144.47;42.73;52931.56;4977187;28;20054;-65
2022/07/21 03:50:03;;;;;;;10.77;3.75;;;;;;;-144.47;42.99;52969.31;4984491;28;20065;-65
2022/07/21 03:52:29;;;;;;;11.05;3.90;;;;;;;-144.47;43.08;52923.63;4980103;28;20035;-65
2022/07/21 03:55:07;;;;;;;6.60;3.67;;;;;;;-144.47;43.09;52955.41;4972634;28;20026;-66
2022/07/21 03:57:34;;;;;;;;;;;;;;;-144.47;43.09;52899.78;4990413;28;20428;-66
2022/07/21 03:59:59;;;;;;;9.88;3.65;;;;;;;-144.47;43.23;52907.72;4979434;28;19910;-64
2022/07/21 04:02:24;;;;;;;7.40;3.13;;;;;;;-144.47;43.24;52955.41;4976671;28;20035;-65
2022/07/21 04:04:50;;;;;;;6.22;3.58;;;;;;;-144.47;43.15;52943.47;4984425;28;20037;-65
2022/07/21 04:07:15;;;;;;;8.35;3.50;;;;;;;-144.47;43.24;52939.50;4984619;28;20495;-65
2022/07/21 04:09:41;;;;;;;8.18;3.40;;;;;;;-144.47;43.23;52943.47;4983461;28;20480;-65
2022/07/21 04:12:06;;;;;;;11.15;3.90;;;;;;;-144.47;43.22;52929.59;4977960;28;20117;-66
2022/07/21 04:14:32;;;;;;;5.70;3.15;;;;;;;-144.47;43.24;52941.50;4991624;28;20026;-66
2022/07/21 04:16:57;;;;;;;11.10;3.58;;;;;;;-144.47;43.11;52957.38;4986284;28;20037;-65
2022/07/21 04:19:22;;;;;;;9.20;3.33;;;;;;;-144.47;42.84;52947.47;4961206;28;20042;-65
2022/07/21 04:21:48;;;;;;;5.57;3.15;;;;;;;-144.47;42.76;52959.38;4965091;28;20030;-65
2022/07/21 04:24:13;;;;;;;6.93;3.10;;;;;;;-144.47;42.64;52949.44;4965881;28;20030;-65
2022/07/21 04:26:38;;;;;;;7.53;3.20;;;;;;;-144.47;42.57;52917.66;4962344;28;20099;-65
2022/07/21 04:29:04;;;;;;;9.07;3.42;;;;;;;-144.47;42.50;52911.69;4964151;28;20110;-65
2022/07/21 04:31:29;;;;;;;7.75;2.78;;;;;;;-144.47;42.35;52893.81;4963679;28;20074;-65
2022/07/21 04:33:55;;;;;;;14.82;3.40;;;;;;;-144.47;41.94;52915.69;4964632;28;20062;-65
2022/07/21 04:36:20;;;;;;;11.35;4.07;;;;;;;-144.47;41.83;52937.53;4961897;28;20030;-65
2022/07/21 04:38:45;;;;;;;6.40;2.97;;;;;;;-144.47;41.86;52921.63;4965419;28;20022;-66
2022/07/21 04:41:11;;;;;;;9.13;2.95;;;;;;;-144.47;41.58;52923.63;4965028;28;20056;-65
2022/07/21 04:43:36;;;;;;;9.38;2.80;;;;;;;-144.47;41.41;52927.59;4965897;28;20054;-64
2022/07/21 04:46:01;;;;;;;5.28;2.65;;;;;;;-144.47;41.43;52935.53;4963676;28;20657;-65
2022/07/21 04:48:27;;;;;;;9.85;2.72;;;;;;;-144.47;41.21;52945.47;4964675;28;20034;-67
2022/07/21 04:50:52;;;;;;;9.15;3.10;;;;;;;-144.47;41.58;52911.69;4966022;28;20050;-64
2022/07/21 04:53:17;;;;;;;7.22;3.20;;;;;;;-144.47;41.60;52921.63;4964727;28;20065;-64
2022/07/21 04:55:43;;;;;;;8.57;3.50;;;;;;;-144.47;41.63;52937.53;4964225;28;20043;-65
2022/07/21 04:58:08;;;;;;;8.98;3.38;;;;;;;-144.47;41.73;52933.56;4964978;28;20031;-63
2022/07/21 05:00:33;;;;;;;9.32;3.10;;;;;;;-144.47;41.70;52951.44;4964747;28;20281;-65
2022/07/21 05:02:59;;;;;;;8.07;3.35;;;;;;;-144.47;41.43;52911.69;4965006;28;20031;-65
2022/07/21 05:05:24;;;;;;;6.03;2.80;;;;;;;-144.47;41.47;52929.59;4968625;28;20481;-63
2022/07/21 05:07:50;;;;;;;7.25;3.05;;;;;;;-144.47;41.50;52951.44;4988129;28;20379;-64
2022/07/21 05:10:18;;;;;;;7.13;3.25;;;;;;;-144.47;41.56;52955.41;4972619;28;20105;-63
2022/07/21 05:12:43;;;;;;;10.38;3.47;;;;;;;-144.47;41.73;52925.59;4967132;28;20452;-65
2022/07/21 05:15:11;;;;;;;6.18;3.20;;;;;;;-144.47;41.60;52937.53;4980910;28;20062;-64
2022/07/21 05:17:36;;;;;;;5.97;2.97;;;;;;;-144.47;41.55;52919.66;4952163;28;20023;-64
2022/07/21 05:20:03;;;;;;;18.25;3.58;;;;;;;-144.47;41.58;52957.38;4967687;28;20488;-64
2022/07/21 05:22:28;;;;;;;9.57;3.75;;;;;;;-144.47;41.43;52923.63;4969223;28;20544;-64
2022/07/21 05:24:54;;;;;;;9.10;3.55;;;;;;;-144.47;41.50;52907.72;4966877;28;20118;-63
2022/07/21 05:27:19;;;;;;;13.63;3.78;;;;;;;-144.47;41.67;52929.59;4967871;28;20161;-63
2022/07/21 05:29:45;;;;;;;16.15;3.85;;;;;;;-144.47;41.64;52935.53;4967928;28;20030;-63
2022/07/21 05:32:10;;;;;;;10.15;3.53;;;;;;;-144.47;41.78;52897.81;4968015;28;20026;-63
2022/07/21 05:34:35;;;;;;;9.02;3.00;;;;;;;-144.47;42.10;52945.47;4978412;28;20042;-64
2022/07/21 05:37:01;;;;;;;11.80;3.22;;;;;;;-144.47;42.13;52951.44;4975641;28;20683;-65
2022/07/21 05:39:26;;;;;;;6.43;3.15;;;;;;;-144.47;42.19;52945.47;4973463;28;20035;-65
2022/07/21 05:41:52;;;;;;;10.90;3.40;;;;;;;-144.47;42.19;52931.56;4976220;28;20037;-71
2022/07/21 05:44:17;;;;;;;8.98;2.97;;;;;;;-144.47;42.21;52953.41;4983072;28;20674;-65
2022/07/21 05:46:42;;;;;;;7.60;3.97;;;;;;;-144.47;42.29;52983.22;4976825;28;20030;-65
2022/07/21 05:49:08;;;;;;;5.53;3.17;;;;;;;-144.47;42.27;52915.69;4989114;28;20026;-66
2022/07/21 05:51:33;;;;;;;8.80;2.90;;;;;;;-144.47;42.36;52927.59;4976304;28;20038;-64
2022/07/21 05:53:58;;;;;;;7.18;2.90;;;;;;;-144.47;42.64;52931.56;4977450;28;20053;-65
2022/07/21 05:56:24;;;;;;;6.75;3.10;;;;;;;-144.47;42.68;52951.44;4967999;28;20566;-65
2022/07/21 05:58:49;;;;;;;7.03;3.25;;;;;;;-144.47;42.83;52915.69;4970011;28;20034;-65
2022/07/21 06:01:16;;;;;;;9.68;3.20;;;;;;;-144.47;42.85;52911.69;4971745;28;20027;-64
2022/07/21 06:03:46;;;;;;;8.30;2.80;;;;;;;-144.47;43.06;52955.41;4982712;28;20053;-64
2022/07/21 06:06:13;;;;;;;6.80;2.83;;;;;;;-144.47;43.14;52935.53;4985736;28;20021;-65
2022/07/21 06:08:40;;;;;;;13.13;3.30;;;;;;;-144.47;43.12;52937.53;4959396;28;20480;-63
2022/07/21 06:11:07;;;;;;;16.80;4.90;;;;;;;-144.47;43.30;52947.47;4970835;28;20026;-64
2022/07/21 06:13:32;;;;;;;12.30;3.20;;;;;;;-144.47;43.49;52931.56;4978344;28;20081;-64
2022/07/21 06:15:57;;;;;;;13.05;3.22;;;;;;;-144.47;43.51;52969.31;4985852;28;20022;-63
2022/07/21 06:18:23;;;;;;;9.23;3.25;;;;;;;-144.47;43.49;52943.47;4977080;28;20465;-64
2022/07/21 06:20:48;;;;;;;8.55;2.78;;;;;;;-144.47;43.16;52979.22;4968685;28;20031;-63
2022/07/21 06:23:14;;;;;;;9.02;3.50;;;;;;;-144.47;43.43;52965.34;4970780;28;20018;-64
2022/07/21 06:25:39;;;;;;;7.18;2.90;;;;;;;-144.47;43.54;52973.28;4985853;28;20384;-65
2022/07/21 06:28:04;;;;;;;7.15;2.85;;;;;;;-144.47;43.42;52947.47;4978160;28;20404;-64
2022/07/21 06:30:30;;;;;;;5.82;2.90;;;;;;;-144.47;43.29;52923.63;4971319;28;21231;-64
2022/07/21 06:32:55;;;;;;;7.28;3.42;;;;;;;-144.47;43.45;52963.34;4976083;28;20058;-63
2022/07/21 06:35:20;;;;;;;7.15;2.78;;;;;;;-144.47;43.48;52969.31;4972728;28;20037;-64
2022/07/21 06:37:46;;;;;;;6.72;2.60;;;;;;;-144.47;43.22;52937.53;4972077;28;20030;-66
2022/07/21 06:40:13;;;;;;;6.50;2.72;;;;;;;-144.47;42.91;52949.44;4977692;28;20436;-65
2022/07/21 06:42:38;;;;;;;10.30;3.10;;;;;;;-144.47;42.98;52923.63;4982911;28;20475;-65
2022/07/21 06:45:04;;;;;;;7.60;2.88;;;;;;;-144.47;42.67;52933.56;4980489;28;20145;-63
2022/07/21 06:47:29;;;;;;;6.55;2.65;;;;;;;-144.47;42.77;52931.56;4984066;28;20093;-64
2022/07/21 06:49:55;;;;;;;14.50;3.22;;;;;;;-144.47;42.81;52911.69;4974575;28;20022;-65
2022/07/21 06:52:20;;;;;;;7.97;2.45;;;;;;;-144.47;42.57;52927.59;4975831;28;20026;-66
2022/07/21 06:54:46;;;;;;;10.95;2.65;;;;;;;-144.47;42.35;52963.34;4973910;28;20407;-64
2022/07/21 06:57:13;;;;;;;8.25;2.78;;;;;;;-144.47;42.20;52913.69;4973362;28;20030;-66
2022/07/21 06:59:39;;;;;;;6.80;2.75;;;;;;;-144.47;41.92;52951.44;4987696;28;20062;-66
2022/07/21 07:02:04;;;;;;;6.47;3.00;;;;;;;-144.47;42.04;52931.56;4972890;28;20500;-64
2022/07/21 07:04:29;;;;;;;8.27;2.90;;;;;;;-144.47;41.95;52941.50;4974682;28;20035;-66
2022/07/21 07:06:55;;;;;;;5.90;3.00;;;;;;;-144.47;41.89;52925.59;4974423;28;20261;-65
2022/07/21 07:09:21;;;;;;;5.18;2.95;;;;;;;-144.47;42.25;52915.69;4986496;28;20395;-67
2022/07/21 07:11:46;;;;;;;7.00;2.70;;;;;;;-144.47;41.55;52967.31;4973287;28;20106;-66
2022/07/21 07:14:13;;;;;;;11.73;3.70;;;;;;;-144.47;41.40;52923.63;4972931;28;20015;-65
2022/07/21 07:16:39;;;;;;;9.48;3.30;;;;;;;-144.47;41.57;52919.66;4985382;28;20037;-66
2022/07/21 07:19:05;;;;;;;7.85;3.00;;;;;;;-144.47;41.53;52935.53;4983533;28;20049;-66
2022/07/21 07:21:30;;;;;;;7.13;3.30;;;;;;;-144.47;41.68;52939.50;4986535;28;20396;-66
2022/07/21 07:23:56;;;;;;;6.63;3.30;;;;;;;-144.47;41.99;52925.59;4971187;28;20110;-64
2022/07/21 07:26:21;;;;;;;9.35;3.28;;;;;;;-144.47;42.05;52935.53;4992170;28;20069;-67
2022/07/21 07:28:47;;;;;;;10.02;3.55;;;;;;;-144.47;41.80;52929.59;4991525;28;20041;-67
2022/07/21 07:31:12;;;;;;;5.28;3.17;;;;;;;-144.47;42.10;52959.38;4959049;28;20039;-65
2022/07/21 07:33:37;;;;;;;8.68;3.20;;;;;;;-144.47;42.31;52957.38;4974175;28;20038;-67
2022/07/21 07:36:03;;;;;;;8.20;3.30;;;;;;;-144.47;42.29;52939.50;4979271;28;20073;-66
2022/07/21 07:38:28;;;;;;;7.70;3.15;;;;;;;-144.47;42.64;52935.53;4980475;28;20035;-67
2022/07/21 07:40:54;;;;;;;6.93;3.03;;;;;;;-144.47;42.26;52979.22;4978965;28;20027;-67
2022/07/21 07:43:19;;;;;;;9.00;3.08;;;;;;;-144.47;41.92;52927.59;4980659;28;20129;-65
2022/07/21 07:45:44;;;;;;;6.50;3.50;;;;;;;-144.47;41.75;52897.81;4972793;28;20465;-66
2022/07/21 07:48:10;;;;;;;5.82;3.53;;;;;;;-144.47;40.92;52917.66;4971676;28;20026;-66
2022/07/21 07:50:35;;;;;;;6.72;3.50;;;;;;;-144.47;40.64;52931.56;4988127;28;20469;-66
2022/07/21 07:53:01;;;;;;;7.20;3.85;;;;;;;-144.47;40.91;52971.28;4972508;28;20061;-67
2022/07/21 07:55:26;;;;;;;10.90;3.70;;;;;;;-144.47;41.02;52933.56;4982378;28;20153;-66
2022/07/21 07:57:52;;;;;;;9.38;3.53;;;;;;;-144.47;40.46;52933.56;4980366;28;20476;-63
2022/07/21 08:00:18;;;;;;;7.35;3.58;;;;;;;-144.47;40.22;52919.66;4976069;28;20115;-64
2022/07/21 08:02:45;;;;;;;9.35;3.53;;;;;;;-144.47;40.01;52919.66;4970436;28;20034;-65
2022/07/21 08:05:11;;;;;;;9.90;3.53;;;;;;;-144.47;40.06;52941.50;4972433;28;20154;-66
2022/07/21 08:07:39;;;;;;;7.68;3.55;;;;;;;-144.47;39.93;52937.53;4984679;28;20460;-66
2022/07/21 08:10:06;;;;;;;9.15;3.30;;;;;;;-144.47;40.01;52931.56;4973366;28;20424;-63
2022/07/21 08:12:31;;;;;;;5.63;3.30;;;;;;;-144.47;40.14;52937.53;4972477;28;20030;-65
2022/07/21 08:14:57;;;;;;;7.57;4.28;;;;;;;-144.47;40.54;52907.72;4972446;28;20030;-66
2022/07/21 08:17:22;;;;;;;8.15;3.70;;;;;;;-144.47;40.88;52915.69;4983102;28;20113;-65
2022/07/21 08:19:47;;;;;;;8.40;3.90;;;;;;;-144.47;41.26;52919.66;4972435;28;20110;-65
2022/07/21 08:22:13;;;;;;;9.90;3.63;;;;;;;-144.47;41.30;52929.59;4972127;28;20030;-64
2022/07/21 08:24:38;;;;;;;8.63;3.65;;;;;;;-144.47;41.50;52931.56;4985093;28;20023;-65
2022/07/21 08:27:04;;;;;;;12.48;5.60;;;;;;;-144.47;42.10;52943.47;4971396;28;20111;-63
2022/07/21 08:29:29;;;;;;;11.85;4.03;;;;;;;-144.47;42.52;52949.44;4986781;28;20026;-64
2022/07/21 08:31:55;;;;;;;8.98;4.68;;;;;;;-144.47;43.17;52917.66;4966422;28;20109;-64
2022/07/21 08:34:20;;;;;;;9.10;4.10;;;;;;;-144.47;43.27;52933.56;4976241;28;20120;-65
2022/07/21 08:36:45;;;;;;;12.27;4.20;;;;;;;-144.47;43.75;52911.69;4979764;28;20142;-66
2022/07/21 08:39:11;;;;;;;10.02;4.20;;;;;;;-144.47;43.95;52967.31;4968562;28;20019;-65
2022/07/21 08:41:37;;;;;;;9.93;4.43;;;;;;;-144.47;44.08;52955.41;4972699;28;20034;-66
2022/07/21 08:44:03;;;;;;;9.77;4.70;;;;;;;-144.47;44.57;52961.34;4972858;28;20027;-64
2022/07/21 08:46:29;;;;;;;11.10;4.63;;;;;;;-144.47;44.75;52973.28;4972190;28;20093;-66
2022/07/21 08:48:57;;;;;;;9.10;4.75;;;;;;;-144.47;44.80;52931.56;4991605;28;20364;-65
2022/07/21 08:51:22;;;;;;;15.57;4.30;;;;;;;-144.47;45.21;52971.28;4979953;28;20027;-65
2022/07/21 08:53:48;;;;;;;9.32;4.75;;;;;;;-144.47;45.54;53007.03;4971927;28;20041;-66
2022/07/21 08:56:14;;;;;;;12.05;5.20;;;;;;;-144.47;45.55;52949.44;4971249;28;20039;-64
2022/07/21 08:58:39;;;;;;;11.05;4.80;;;;;;;-144.47;45.55;52965.34;4984094;28;20030;-66
2022/07/21 09:01:05;;;;;;;8.68;4.97;;;;;;;-144.47;46.03;52993.13;4969486;28;20126;-65
2022/07/21 09:03:32;;;;;;;13.20;5.90;;;;;;;-144.47;46.18;52979.22;4970560;28;20499;-67
2022/07/21 09:06:11;;;;;;;10.63;4.82;;;;;;;-144.47;46.30;52965.34;4971452;28;20346;-66
2022/07/21 09:08:40;;;;;;;9.77;5.30;;;;;;;-144.47;46.30;52995.13;4971223;28;20365;-66
2022/07/21 09:11:18;;;;;;;10.82;5.65;;;;;;;-144.47;46.90;52983.22;4970748;28;20783;-64
2022/07/21 09:13:46;;;;;;;11.38;5.95;;;;;;;-144.47;47.57;52957.38;4974863;28;20280;-63
2022/07/21 09:16:11;;;;;;;12.43;5.32;;;;;;;-144.47;47.65;52973.28;4969572;28;20121;-65
2022/07/21 09:18:50;;;;;;;12.10;6.22;;;;;;;-144.47;48.03;52977.25;4980851;28;20490;-64
2022/07/21 09:21:17;;;;;;;10.52;6.68;;;;;;;-144.47;48.06;52971.28;4983952;28;20026;-64
2022/07/21 09:23:43;;;;;;;9.73;6.13;;;;;;;-144.47;48.99;53009.03;4981990;28;20098;-65
2022/07/21 09:26:08;;;;;;;17.70;7.45;;;;;;;-144.47;49.65;52983.22;4985716;28;20121;-63
2022/07/21 09:28:34;;;;;;;12.27;6.15;;;;;;;-144.47;50.42;52983.22;4970619;28;20053;-64
2022/07/21 09:31:03;;;;;;;9.60;5.43;;;;;;;-144.47;51.73;53007.03;4982825;23;20047;-65
2022/07/21 09:33:35;;;;;;;13.13;5.82;;;;;;;-144.47;53.56;53003.06;4969407;28;20031;-65
2022/07/21 09:36:13;;;;;;;27.77;7.00;;;;;;;-144.47;53.18;53046.75;4970322;28;20034;-65
2022/07/21 09:38:42;;;;;;;14.95;7.50;;;;;;;-144.47;55.03;53013.00;4970525;28;20469;-66
2022/07/21 09:41:14;;;;;;;12.95;7.40;;;;;;;-144.47;55.52;52993.13;4969269;28;20030;-64
2022/07/21 09:43:51;;;;;;;26.95;7.57;;;;;;;-144.47;54.76;53030.88;4982797;28;20030;-66
2022/07/21 09:46:22;;;;;;;14.18;6.72;;;;;;;-144.47;54.95;53007.03;4966672;28;20026;-64
2022/07/21 09:48:50;;;;;;;17.70;6.40;;;;;;;-144.47;54.92;52987.19;4974203;28;20109;-63
2022/07/21 09:51:19;;;;;;;11.60;6.47;;;;;;;-144.47;55.09;53007.03;4979383;28;20589;-64
2022/07/21 09:54:00;;;;;;;15.55;5.95;;;;;;;-144.47;54.90;53032.88;4963588;28;20102;-65
2022/07/21 09:56:32;;;;;;;28.25;8.48;;;;;;;-144.47;55.00;52987.19;4969325;28;20508;-64
2022/07/21 09:58:59;;;;;;;13.25;6.90;;;;;;;-144.47;55.32;53016.97;4973635;28;20035;-65
2022/07/21 10:01:26;;;;;;;12.93;6.47;;;;;;;-144.47;54.81;53038.81;4969797;28;20034;-64
2022/07/21 10:03:54;;;;;;;13.60;6.75;;;;;;;-144.47;55.17;53038.81;4979121;28;20160;-65
2022/07/21 10:06:24;;;;;;;14.93;6.47;;;;;;;-144.47;54.35;52987.19;4975131;28;20054;-64
2022/07/21 10:08:49;;;;;;;12.23;6.65;;;;;;;-144.47;53.91;52993.13;4970644;28;20413;-67
2022/07/21 10:11:15;;;;;;;13.40;7.25;;;;;;;-144.47;54.14;53005.06;4969636;28;20038;-64
2022/07/21 10:13:41;;;;;;;22.70;6.95;;;;;;;-144.47;53.55;53030.88;4977924;28;20041;-64
2022/07/21 10:16:11;;;;;;;18.33;7.35;;;;;;;-144.47;51.91;53016.97;4972382;28;20091;-65
2022/07/21 10:18:44;;;;;;;14.63;6.32;;;;;;;-144.47;52.19;53018.97;4977346;28;20030;-64
2022/07/21 10:21:37;;;;;;;13.30;6.03;;;;;;;-144.47;51.42;52975.25;4978245;28;20026;-64
2022/07/21 10:24:04;;;;;;;27.38;6.95;;;;;;;-144.47;51.05;53030.88;4966516;28;20034;-64
2022/07/21 10:26:30;;;;;;;10.87;7.53;;;;;;;-144.47;50.96;52981.22;4959094;28;20042;-64
2022/07/21 10:28:55;;;;;;;11.63;6.65;;;;;;;-144.47;50.89;52955.41;4962209;28;20035;-64
2022/07/21 10:31:23;;;;;;;16.73;6.50;;;;;;;-144.47;50.30;52959.38;4961224;28;20122;-67
2022/07/21 10:33:48;;;;;;;10.48;6.22;;;;;;;-144.47;49.31;52999.09;4973595;28;20423;-65
2022/07/21 10:36:31;;;;;;;13.40;6.38;;;;;;;-144.47;49.90;52959.38;4987022;28;20526;-65
2022/07/21 10:39:08;;;;;;;12.52;6.53;;;;;;;-144.47;49.78;52995.13;4963938;28;20113;-66
2022/07/21 10:41:46;;;;;;;14.73;6.85;;;;;;;-144.47;49.58;52975.25;4969881;28;20031;-66
2022/07/21 10:44:30;;;;;;;12.15;7.22;;;;;;;-144.47;48.31;52975.25;4981424;28;20038;-63
2022/07/21 10:47:06;;;;;;;17.00;6.40;;;;;;;-144.47;47.31;53015.00;4964435;28;20030;-64
2022/07/21 10:49:48;;;;;;;11.93;5.95;;;;;;;-144.47;48.28;52995.13;4972910;28;20388;-64
2022/07/21 10:52:42;;;;;;;8.32;4.68;;;;;;;-144.47;46.47;52955.41;4975095;28;20081;-64
2022/07/21 10:55:11;;;;;;;10.65;6.25;;;;;;;-144.47;46.36;52949.44;4963670;28;20100;-65
2022/07/21 10:57:38;;;;;;;10.40;6.07;;;;;;;-144.47;45.21;52967.31;4968793;28;20031;-65
2022/07/21 11:00:22;;;;;;;13.95;7.05;;;;;;;-144.47;45.55;52955.41;4969693;28;20038;-64
2022/07/21 11:02:59;;;;;;;8.88;5.68;;;;;;;-144.47;45.30;52977.25;4973456;28;20034;-65
2022/07/21 11:05:26;;;;;;;13.00;6.07;;;;;;;-144.47;45.74;52953.41;4975162;28;20097;-66
2022/07/21 11:08:13;;;;;;;12.63;6.00;;;;;;;-144.47;45.06;52951.44;4969052;28;20397;-64
2022/07/21 11:10:47;;;;;;;10.63;6.13;;;;;;;-144.47;43.98;52963.34;4977620;28;20272;-65
2022/07/21 11:13:14;;;;;;;13.52;6.43;;;;;;;-144.47;43.98;52933.56;4967839;28;20031;-66
2022/07/21 11:15:55;;;;;;;10.32;6.35;;;;;;;-144.47;44.37;52939.50;4985583;28;20041;-64
2022/07/21 11:18:23;;;;;;;14.80;6.78;;;;;;;-144.47;44.37;52947.47;4983372;28;20120;-65